Normand Flipper — 9V6929 — position and weather

sailwx.info

Track history (hours):
 
Tides and Currents Weather Stations Pressure Air Temp Water Temp Dewpoint Dewpoint Depression Visibility Wind Speed Wind Dir Waves Ship Positions

Normand Flipper

Last reported at 2014-Jul-29 04:27 UTC. Time now 2014-Jul-29 12:44 UTC.
Position N 57°41' W 001°43'.

Length 80 m; draft 4.7 m.

Type: Cargo ship. MMSI: 566522000.

Date/timePositionNaut miles runAvg speedWind from/ knotsBaromVisibWave heightAir tempDewpointWater temp
2014-Jul-29 04:27N 57°41' W 001°43'910.0
2014-Jul-29 03:34N 57°32' W 001°42'9 9.2
2014-Jul-29 02:33N 57°23' W 001°46'18 8.9
2014-Jul-29 00:34N 57°08' W 002°05'0 0.0
2014-Jul-28 22:20N 57°08' W 002°05'10 4.6
2014-Jul-28 20:11N 57°16' W 001°54'6 9.7
2014-Jul-28 19:34N 57°22' W 001°48'9 9.5
2014-Jul-28 18:33N 57°30' W 001°42'10 9.8
2014-Jul-28 17:33N 57°40' W 001°44'1110.8
2014-Jul-28 16:31N 57°51' W 001°43'26 0.6
2014-Jul-26 18:09N 58°18' W 001°45'0 0.0
2014-Jul-26 17:33N 58°18' W 001°45'1 0.4
2014-Jul-26 16:20N 58°18' W 001°45'1 0.4
2014-Jul-26 14:22N 58°18' W 001°46'1 1.4
2014-Jul-26 13:33N 58°18' W 001°44'1 1.1
2014-Jul-26 12:32N 58°18' W 001°46'1 0.2
2014-Jul-26 08:30N 58°18' W 001°45'0 0.0
2014-Jul-26 05:21N 58°18' W 001°45'0 0.0
2014-Jul-26 04:15N 58°18' W 001°45'0 0.0
2014-Jul-25 22:33N 58°18' W 001°45'0 0.0
2014-Jul-25 21:13N 58°18' W 001°45'0 0.0
2014-Jul-25 19:28N 58°18' W 001°45'0 0.0
2014-Jul-25 18:30N 58°18' W 001°45'1 0.1
2014-Jul-25 07:23N 58°18' W 001°46'0 0.0
2014-Jul-25 06:28N 58°18' W 001°46'14 7.1
2014-Jul-25 04:32N 58°05' W 001°44'1111.6
2014-Jul-25 03:33N 57°53' W 001°43'1111.5
2014-Jul-25 02:34N 57°42' W 001°42'1110.8
2014-Jul-25 01:34N 57°31' W 001°42'1010.0
2014-Jul-25 00:33N 57°21' W 001°46'16 8.2
2014-Jul-24 22:34N 57°08' W 002°05'0 0.0
2014-Jul-24 21:33N 57°08' W 002°05'0 0.0
2014-Jul-24 20:33N 57°08' W 002°05'2 1.7
2014-Jul-24 19:13N 57°10' W 002°02'7 9.4
2014-Jul-24 18:27N 57°16' W 001°54'910.2
2014-Jul-24 17:34N 57°24' W 001°46'9 9.2
2014-Jul-24 16:34N 57°33' W 001°43'1010.0
2014-Jul-24 15:33N 57°43' W 001°44'1111.1
2014-Jul-24 14:33N 57°54' W 001°43'25 9.9
2014-Jul-24 12:05N 58°18' W 001°46'1 1.0
2014-Jul-24 11:18N 58°18' W 001°45'24 3.5
2014-Jul-24 04:33N 57°54' W 001°44'1212.2
2014-Jul-24 03:34N 57°42' W 001°43'1212.4
2014-Jul-24 02:34N 57°30' W 001°40'1212.0
2014-Jul-24 01:33N 57°19' W 001°51'2 0.4
2014-Jul-23 19:33N 57°17' W 001°51'1110.7
2014-Jul-23 18:33N 57°26' W 001°40'1010.3
2014-Jul-23 17:33N 57°36' W 001°41'10 9.8
2014-Jul-23 16:33N 57°46' W 001°43'2310.6
2014-Jul-23 14:25N 58°08' W 001°44'10 0.7
2014-Jul-23 00:22N 58°19' W 001°45'0 0.0
2014-Jul-22 23:16N 58°19' W 001°45'0 0.0
2014-Jul-22 21:33N 58°19' W 001°45'0 0.0
2014-Jul-22 20:22N 58°19' W 001°45'1 0.0
2014-Jul-22 07:24N 58°18' W 001°46'27 2.9
2014-Jul-21 22:05N 57°51' W 001°43'610.8
2014-Jul-21 21:34N 57°45' W 001°42'1010.1
2014-Jul-21 20:34N 57°35' W 001°41'2 9.5
2014-Jul-21 20:18N 57°33' W 001°40'7 9.1
2014-Jul-21 19:33N 57°26' W 001°39'1 1.2
2014-Jul-21 18:34N 57°27' W 001°41'1 0.6
2014-Jul-21 17:33N 57°28' W 001°41'5 5.3
2014-Jul-21 16:33N 57°23' W 001°45'18 7.7
2014-Jul-21 14:14N 57°08' W 002°05'0 0.0
2014-Jul-21 12:07N 57°08' W 002°05'0 0.0
2014-Jul-21 11:31N 57°08' W 002°05'0 0.0
2014-Jul-21 10:28N 57°08' W 002°05'15 1.7
2014-Jul-21 01:33N 57°21' W 001°49'9 8.9
2014-Jul-21 00:33N 57°29' W 001°42'9 8.6
2014-Jul-20 23:33N 57°38' W 001°43'5 4.6
2014-Jul-20 22:33N 57°42' W 001°46'3 2.4
2014-Jul-20 21:32N 57°44' W 001°49'35 1.2
2014-Jul-19 17:13N 58°19' W 001°47'0 0.0
2014-Jul-19 16:33N 58°19' W 001°47'0 0.0
2014-Jul-19 15:33N 58°19' W 001°47'0 0.0
2014-Jul-19 11:19N 58°19' W 001°47'0 0.0
2014-Jul-19 10:33N 58°19' W 001°47'0 0.0
2014-Jul-19 09:23N 58°19' W 001°47'  
Track history (hours):
 
Tides and Currents Weather Stations Pressure Air Temp Water Temp Dewpoint Dewpoint Depression Visibility Wind Speed Wind Dir Waves Ship Positions

Normand Flipper

Last reported at 2014-Jul-29 04:27 UTC. Time now 2014-Jul-29 12:44 UTC.
Position N 57°41' W 001°43'.

Length 80 m; draft 4.7 m.

Type: Cargo ship. MMSI: 566522000.

Date/timePositionNaut miles runAvg speedWind from/ knotsBaromVisibWave heightAir tempDewpointWater temp
2014-Jul-29 04:27N 57°41' W 001°43'910.0
2014-Jul-29 03:34N 57°32' W 001°42'9 9.2
2014-Jul-29 02:33N 57°23' W 001°46'18 8.9
2014-Jul-29 00:34N 57°08' W 002°05'0 0.0
2014-Jul-28 22:20N 57°08' W 002°05'10 4.6
2014-Jul-28 20:11N 57°16' W 001°54'6 9.7
2014-Jul-28 19:34N 57°22' W 001°48'9 9.5
2014-Jul-28 18:33N 57°30' W 001°42'10 9.8
2014-Jul-28 17:33N 57°40' W 001°44'1110.8
2014-Jul-28 16:31N 57°51' W 001°43'26 0.6
2014-Jul-26 18:09N 58°18' W 001°45'0 0.0
2014-Jul-26 17:33N 58°18' W 001°45'1 0.4
2014-Jul-26 16:20N 58°18' W 001°45'1 0.4
2014-Jul-26 14:22N 58°18' W 001°46'1 1.4
2014-Jul-26 13:33N 58°18' W 001°44'1 1.1
2014-Jul-26 12:32N 58°18' W 001°46'1 0.2
2014-Jul-26 08:30N 58°18' W 001°45'0 0.0
2014-Jul-26 05:21N 58°18' W 001°45'0 0.0
2014-Jul-26 04:15N 58°18' W 001°45'0 0.0
2014-Jul-25 22:33N 58°18' W 001°45'0 0.0
2014-Jul-25 21:13N 58°18' W 001°45'0 0.0
2014-Jul-25 19:28N 58°18' W 001°45'0 0.0
2014-Jul-25 18:30N 58°18' W 001°45'1 0.1
2014-Jul-25 07:23N 58°18' W 001°46'0 0.0
2014-Jul-25 06:28N 58°18' W 001°46'14 7.1
2014-Jul-25 04:32N 58°05' W 001°44'1111.6
2014-Jul-25 03:33N 57°53' W 001°43'1111.5
2014-Jul-25 02:34N 57°42' W 001°42'1110.8
2014-Jul-25 01:34N 57°31' W 001°42'1010.0
2014-Jul-25 00:33N 57°21' W 001°46'16 8.2
2014-Jul-24 22:34N 57°08' W 002°05'0 0.0
2014-Jul-24 21:33N 57°08' W 002°05'0 0.0
2014-Jul-24 20:33N 57°08' W 002°05'2 1.7
2014-Jul-24 19:13N 57°10' W 002°02'7 9.4
2014-Jul-24 18:27N 57°16' W 001°54'910.2
2014-Jul-24 17:34N 57°24' W 001°46'9 9.2
2014-Jul-24 16:34N 57°33' W 001°43'1010.0
2014-Jul-24 15:33N 57°43' W 001°44'1111.1
2014-Jul-24 14:33N 57°54' W 001°43'25 9.9
2014-Jul-24 12:05N 58°18' W 001°46'1 1.0
2014-Jul-24 11:18N 58°18' W 001°45'24 3.5
2014-Jul-24 04:33N 57°54' W 001°44'1212.2
2014-Jul-24 03:34N 57°42' W 001°43'1212.4
2014-Jul-24 02:34N 57°30' W 001°40'1212.0
2014-Jul-24 01:33N 57°19' W 001°51'2 0.4
2014-Jul-23 19:33N 57°17' W 001°51'1110.7
2014-Jul-23 18:33N 57°26' W 001°40'1010.3
2014-Jul-23 17:33N 57°36' W 001°41'10 9.8
2014-Jul-23 16:33N 57°46' W 001°43'2310.6
2014-Jul-23 14:25N 58°08' W 001°44'10 0.7
2014-Jul-23 00:22N 58°19' W 001°45'0 0.0
2014-Jul-22 23:16N 58°19' W 001°45'0 0.0
2014-Jul-22 21:33N 58°19' W 001°45'0 0.0
2014-Jul-22 20:22N 58°19' W 001°45'1 0.0
2014-Jul-22 07:24N 58°18' W 001°46'27 2.9
2014-Jul-21 22:05N 57°51' W 001°43'610.8
2014-Jul-21 21:34N 57°45' W 001°42'1010.1
2014-Jul-21 20:34N 57°35' W 001°41'2 9.5
2014-Jul-21 20:18N 57°33' W 001°40'7 9.1
2014-Jul-21 19:33N 57°26' W 001°39'1 1.2
2014-Jul-21 18:34N 57°27' W 001°41'1 0.6
2014-Jul-21 17:33N 57°28' W 001°41'5 5.3
2014-Jul-21 16:33N 57°23' W 001°45'18 7.7
2014-Jul-21 14:14N 57°08' W 002°05'0 0.0
2014-Jul-21 12:07N 57°08' W 002°05'0 0.0
2014-Jul-21 11:31N 57°08' W 002°05'0 0.0
2014-Jul-21 10:28N 57°08' W 002°05'15 1.7
2014-Jul-21 01:33N 57°21' W 001°49'9 8.9
2014-Jul-21 00:33N 57°29' W 001°42'9 8.6
2014-Jul-20 23:33N 57°38' W 001°43'5 4.6
2014-Jul-20 22:33N 57°42' W 001°46'3 2.4
2014-Jul-20 21:32N 57°44' W 001°49'35 1.2
2014-Jul-19 17:13N 58°19' W 001°47'0 0.0
2014-Jul-19 16:33N 58°19' W 001°47'0 0.0
2014-Jul-19 15:33N 58°19' W 001°47'0 0.0
2014-Jul-19 11:19N 58°19' W 001°47'0 0.0
2014-Jul-19 10:33N 58°19' W 001°47'0 0.0
2014-Jul-19 09:23N 58°19' W 001°47'  

Dump ship's entire track history